createdAt,value
2019-03-28T00:01:09.590Z,91.43
2019-03-28T00:04:20.193Z,91.82
2019-03-28T00:07:28.098Z,91.92
2019-03-28T00:10:36.088Z,91.10
2019-03-28T00:13:43.976Z,90.74
2019-03-28T00:16:51.886Z,90.68
2019-03-28T00:20:01.050Z,90.63
2019-03-28T00:23:30.690Z,90.59
2019-03-28T00:26:38.815Z,90.18
2019-03-28T00:29:47.846Z,88.69
2019-03-28T00:32:55.662Z,89.12
2019-03-28T00:36:04.744Z,88.76
2019-03-28T00:39:12.702Z,89.54
2019-03-28T00:42:20.516Z,89.64
2019-03-28T00:45:28.416Z,91.27
2019-03-28T00:48:36.224Z,91.70
2019-03-28T00:51:44.591Z,92.24
2019-03-28T00:54:55.276Z,91.98
2019-03-28T00:58:03.381Z,92.68
2019-03-28T01:01:11.310Z,92.63
2019-03-28T01:04:19.327Z,91.81
2019-03-28T01:07:27.279Z,91.94
2019-03-28T01:10:35.144Z,90.41
2019-03-28T01:13:43.307Z,90.07
2019-03-28T01:16:51.142Z,91.42
2019-03-28T01:20:02.736Z,92.60
2019-03-28T01:23:10.672Z,90.66
2019-03-28T01:26:18.516Z,91.33
2019-03-28T01:29:26.557Z,91.09
2019-03-28T01:32:34.390Z,90.10
2019-03-28T01:35:42.342Z,90.75
2019-03-28T01:38:50.022Z,91.15
2019-03-28T01:42:00.680Z,92.39
2019-03-28T01:45:08.773Z,91.85
2019-03-28T01:48:16.647Z,93.15
2019-03-28T01:51:24.563Z,92.65
2019-03-28T01:54:32.672Z,92.48
2019-03-28T01:57:40.887Z,92.47
2019-03-28T02:00:48.955Z,93.56
2019-03-28T02:03:56.870Z,93.48
2019-03-28T02:07:04.826Z,93.82
2019-03-28T02:10:13.353Z,93.42
2019-03-28T02:13:22.203Z,94.64
2019-03-28T02:16:30.683Z,93.45
2019-03-28T02:19:38.715Z,93.29
2019-03-28T02:22:46.531Z,94.00
2019-03-28T02:25:56.884Z,95.72
2019-03-28T02:29:04.731Z,96.93
2019-03-28T02:32:12.601Z,97.76
2019-03-28T02:35:20.579Z,96.72
2019-03-28T02:38:30.240Z,95.66
2019-03-28T02:41:38.054Z,94.47
2019-03-28T02:44:48.745Z,95.87
2019-03-28T02:47:56.750Z,96.43
2019-03-28T02:51:04.588Z,96.61
2019-03-28T02:54:12.552Z,95.93
2019-03-28T02:57:21.603Z,98.06
2019-03-28T03:00:29.398Z,97.64
2019-03-28T03:03:37.205Z,97.20
2019-03-28T03:06:44.961Z,95.84
2019-03-28T03:09:52.924Z,96.34
2019-03-28T03:13:00.797Z,98.12
2019-03-28T03:16:10.447Z,97.21
2019-03-28T03:19:18.081Z,99.11
2019-03-28T03:22:25.989Z,97.98
2019-03-28T03:25:33.851Z,97.12
2019-03-28T03:28:42.007Z,98.44
2019-03-28T03:31:49.877Z,99.31
2019-03-28T03:34:57.677Z,98.91
2019-03-28T03:38:05.728Z,98.70
2019-03-28T03:41:13.610Z,99.55
2019-03-28T03:44:21.384Z,99.76
2019-03-28T03:47:29.229Z,100.00
2019-03-28T03:50:37.001Z,99.04
2019-03-28T03:53:45.122Z,99.31
2019-03-28T03:56:52.797Z,99.98
2019-03-28T04:00:00.959Z,98.99
2019-03-28T04:03:08.857Z,98.91
2019-03-28T04:06:16.777Z,100.00
2019-03-28T04:09:24.526Z,100.00
2019-03-28T04:12:32.353Z,98.34
2019-03-28T04:15:40.253Z,99.08
2019-03-28T04:18:48.132Z,100.00
2019-03-28T04:21:55.811Z,100.00
2019-03-28T04:25:03.685Z,98.35
2019-03-28T04:28:12.630Z,98.87
2019-03-28T04:31:21.130Z,98.20
2019-03-28T04:34:29.260Z,97.88
2019-03-28T04:37:36.954Z,100.00
2019-03-28T04:40:44.851Z,99.70
2019-03-28T04:43:55.659Z,99.67
2019-03-28T04:47:04.122Z,99.53
2019-03-28T04:50:12.281Z,100.00
2019-03-28T04:53:22.075Z,100.00
2019-03-28T04:56:29.938Z,100.00
2019-03-28T04:59:44.774Z,100.00
2019-03-28T05:02:55.103Z,99.79
2019-03-28T05:06:02.916Z,99.89
2019-03-28T05:09:10.770Z,100.00
2019-03-28T05:12:18.675Z,100.00
2019-03-28T05:15:26.468Z,100.00
2019-03-28T05:18:34.175Z,100.00
2019-03-28T05:21:41.827Z,100.00
2019-03-28T05:24:49.756Z,100.00
2019-03-28T05:27:58.087Z,100.00
2019-03-28T05:31:05.910Z,100.00
2019-03-28T05:34:13.718Z,100.00
2019-03-28T05:37:21.471Z,100.00
2019-03-28T05:40:29.209Z,100.00
2019-03-28T05:43:36.980Z,100.00
2019-03-28T05:46:44.840Z,100.00
2019-03-28T05:49:52.733Z,100.00
2019-03-28T05:53:00.733Z,100.00
2019-03-28T05:56:08.582Z,100.00
2019-03-28T05:59:16.449Z,100.00
2019-03-28T06:02:24.547Z,100.00
2019-03-28T06:05:33.010Z,100.00
2019-03-28T06:08:40.837Z,100.00
2019-03-28T06:11:48.663Z,100.00
2019-03-28T06:14:56.538Z,100.00
2019-03-28T06:18:04.414Z,100.00
2019-03-28T06:21:12.137Z,100.00
2019-03-28T06:24:20.012Z,100.00
2019-03-28T06:27:27.772Z,100.00
2019-03-28T06:30:35.489Z,100.00
2019-03-28T06:33:43.202Z,100.00
2019-03-28T06:36:51.660Z,100.00
2019-03-28T06:39:59.485Z,100.00
2019-03-28T06:43:07.342Z,100.00
2019-03-28T06:46:15.329Z,100.00
2019-03-28T06:49:23.356Z,100.00
2019-03-28T06:52:31.173Z,100.00
2019-03-28T06:55:38.965Z,100.00
2019-03-28T06:58:46.871Z,100.00
2019-03-28T07:01:54.777Z,100.00
2019-03-28T07:05:02.556Z,100.00
2019-03-28T07:08:10.654Z,100.00
2019-03-28T07:11:18.477Z,100.00
2019-03-28T07:14:26.287Z,100.00
2019-03-28T07:17:34.334Z,100.00
2019-03-28T07:20:43.260Z,100.00
2019-03-28T07:23:50.930Z,100.00
2019-03-28T07:27:00.585Z,100.00
2019-03-28T07:30:09.951Z,100.00
2019-03-28T07:33:17.838Z,100.00
2019-03-28T07:36:25.987Z,100.00
2019-03-28T07:39:34.146Z,100.00
2019-03-28T07:42:44.711Z,100.00
2019-03-28T07:45:53.326Z,100.00
2019-03-28T07:49:01.237Z,100.00
2019-03-28T07:52:09.144Z,100.00
2019-03-28T07:55:16.995Z,100.00
2019-03-28T07:58:24.789Z,100.00
2019-03-28T08:01:32.552Z,100.00
2019-03-28T08:04:40.598Z,100.00
2019-03-28T08:07:49.484Z,100.00
2019-03-28T08:10:58.671Z,100.00
2019-03-28T08:14:06.789Z,100.00
2019-03-28T08:17:14.570Z,100.00
2019-03-28T08:20:22.855Z,100.00
2019-03-28T08:23:30.689Z,100.00
2019-03-28T08:26:38.640Z,100.00
2019-03-28T08:29:46.657Z,100.00
2019-03-28T08:32:54.503Z,100.00
2019-03-28T08:36:02.834Z,100.00
2019-03-28T08:39:11.201Z,100.00
2019-03-28T08:42:19.654Z,100.00
2019-03-28T08:45:27.627Z,100.00
2019-03-28T08:48:35.475Z,100.00
2019-03-28T08:51:43.533Z,100.00
2019-03-28T08:54:51.293Z,100.00
2019-03-28T08:57:59.402Z,100.00
2019-03-28T09:01:08.391Z,100.00
2019-03-28T09:04:16.215Z,100.00
2019-03-28T09:07:24.287Z,100.00
2019-03-28T09:10:32.004Z,100.00
2019-03-28T09:13:40.146Z,100.00
2019-03-28T09:16:47.860Z,100.00
2019-03-28T09:19:55.654Z,100.00
2019-03-28T09:23:03.437Z,100.00
2019-03-28T09:26:11.375Z,100.00
2019-03-28T09:29:19.351Z,100.00
2019-03-28T09:32:27.282Z,100.00
2019-03-28T09:35:35.112Z,100.00
2019-03-28T09:38:44.770Z,100.00
2019-03-28T09:41:52.565Z,100.00
2019-03-28T09:45:00.456Z,100.00
2019-03-28T09:48:11.498Z,100.00
2019-03-28T09:51:17.810Z,100.00
2019-03-28T09:54:25.755Z,100.00
2019-03-28T09:57:33.724Z,100.00
2019-03-28T10:00:42.172Z,100.00
2019-03-28T10:03:50.273Z,100.00
2019-03-28T10:06:58.260Z,100.00
2019-03-28T10:10:09.148Z,100.00
2019-03-28T10:13:16.554Z,100.00
2019-03-28T10:16:25.684Z,100.00
2019-03-28T10:19:33.509Z,100.00
2019-03-28T10:22:42.795Z,100.00
2019-03-28T10:25:50.490Z,100.00
2019-03-28T10:28:58.392Z,100.00
2019-03-28T10:32:06.537Z,100.00
2019-03-28T10:35:27.538Z,100.00
2019-03-28T10:38:35.286Z,100.00
2019-03-28T10:41:46.015Z,100.00
2019-03-28T10:44:54.124Z,100.00
2019-03-28T10:48:01.948Z,100.00
2019-03-28T10:51:09.850Z,100.00
2019-03-28T10:54:20.635Z,100.00
2019-03-28T10:57:31.974Z,100.00
2019-03-28T11:00:37.345Z,100.00
2019-03-28T11:03:45.499Z,100.00
2019-03-28T11:06:53.379Z,100.00
2019-03-28T11:10:01.363Z,100.00
2019-03-28T11:13:09.822Z,100.00
2019-03-28T11:16:17.925Z,100.00
2019-03-28T11:19:27.141Z,100.00
2019-03-28T11:22:34.911Z,100.00
2019-03-28T11:25:44.616Z,100.00
2019-03-28T11:28:52.449Z,100.00
2019-03-28T11:32:00.521Z,100.00
2019-03-28T11:35:09.043Z,100.00
2019-03-28T11:38:17.318Z,100.00
2019-03-28T11:41:25.097Z,100.00
2019-03-28T11:44:32.958Z,100.00
2019-03-28T11:47:44.576Z,100.00
2019-03-28T11:50:52.476Z,100.00
2019-03-28T11:54:00.338Z,100.00
2019-03-28T11:57:08.245Z,100.00
2019-03-28T12:00:17.508Z,100.00
2019-03-28T12:03:26.789Z,100.00
2019-03-28T12:06:34.624Z,100.00
2019-03-28T12:09:42.668Z,100.00
2019-03-28T12:12:50.395Z,100.00
2019-03-28T12:15:58.247Z,100.00
2019-03-28T12:19:05.945Z,100.00
2019-03-28T12:22:13.996Z,100.00
2019-03-28T12:25:21.732Z,100.00
2019-03-28T12:28:29.467Z,100.00
2019-03-28T12:31:38.398Z,100.00
2019-03-28T12:34:46.202Z,100.00
2019-03-28T12:37:53.966Z,100.00
2019-03-28T12:41:01.960Z,100.00
2019-03-28T12:44:09.837Z,100.00
2019-03-28T12:47:23.459Z,100.00
2019-03-28T12:50:31.610Z,100.00
2019-03-28T12:53:40.914Z,100.00
2019-03-28T12:56:49.720Z,99.52
2019-03-28T12:59:57.737Z,98.60
2019-03-28T13:03:05.518Z,98.07
2019-03-28T13:06:13.930Z,97.74
2019-03-28T13:09:21.713Z,97.23
2019-03-28T13:12:30.514Z,97.63
2019-03-28T13:15:38.391Z,97.18
2019-03-28T13:18:47.385Z,96.74
2019-03-28T13:21:55.122Z,97.63
2019-03-28T13:25:10.283Z,96.34
2019-03-28T13:28:20.571Z,96.36
2019-03-28T13:31:28.616Z,96.53
2019-03-28T13:34:36.556Z,95.72
2019-03-28T13:37:44.324Z,95.83
2019-03-28T13:40:52.130Z,95.48
2019-03-28T13:44:00.958Z,95.46
2019-03-28T13:47:08.885Z,95.33
2019-03-28T13:50:17.656Z,95.30
2019-03-28T13:53:38.405Z,94.74
2019-03-28T13:56:38.333Z,93.93
2019-03-28T13:59:47.124Z,94.82
2019-03-28T14:02:58.838Z,95.38
2019-03-28T14:06:04.770Z,95.23
2019-03-28T14:09:15.683Z,95.14
2019-03-28T14:12:23.403Z,95.56
2019-03-28T14:15:31.500Z,94.53
2019-03-28T14:18:44.924Z,94.76
2019-03-28T14:21:49.843Z,94.26
2019-03-28T14:24:57.719Z,94.34
2019-03-28T14:28:06.009Z,95.64
2019-03-28T14:31:14.181Z,94.22
2019-03-28T14:34:22.057Z,94.49
2019-03-28T14:37:29.865Z,95.73
2019-03-28T14:40:37.903Z,95.43
2019-03-28T14:43:45.695Z,95.54
2019-03-28T14:46:53.508Z,96.29
2019-03-28T14:50:01.478Z,97.97
2019-03-28T14:53:10.246Z,97.80
2019-03-28T14:56:18.810Z,97.04
2019-03-28T14:59:32.703Z,97.31
2019-03-28T15:02:37.849Z,97.53
2019-03-28T15:05:45.650Z,98.14
2019-03-28T15:08:54.729Z,98.24
2019-03-28T15:12:02.459Z,97.42
2019-03-28T15:15:10.325Z,97.75
2019-03-28T15:18:18.348Z,98.02
2019-03-28T15:21:26.167Z,98.69
2019-03-28T15:24:34.109Z,98.03
2019-03-28T15:27:41.897Z,97.12
2019-03-28T15:30:51.588Z,96.63
2019-03-28T15:33:59.525Z,98.57
2019-03-28T15:37:07.389Z,98.12
2019-03-28T15:40:15.281Z,97.80
2019-03-28T15:43:23.478Z,97.41
2019-03-28T15:46:31.311Z,97.13
2019-03-28T15:49:42.378Z,96.65
2019-03-28T15:52:50.275Z,96.34
2019-03-28T15:55:58.133Z,97.39
2019-03-28T15:59:06.171Z,96.89
2019-03-28T16:02:14.230Z,96.81
2019-03-28T16:05:22.013Z,97.55
2019-03-28T16:08:29.828Z,97.38
2019-03-28T16:11:37.625Z,97.73
2019-03-28T16:14:48.819Z,98.45
2019-03-28T16:17:57.798Z,98.95
2019-03-28T16:21:06.451Z,98.95
2019-03-28T16:24:15.338Z,99.18
2019-03-28T16:27:23.220Z,98.86
2019-03-28T16:30:53.774Z,98.57
2019-03-28T16:34:12.323Z,99.00
2019-03-28T16:37:57.918Z,97.94
2019-03-28T16:41:06.028Z,98.28
2019-03-28T16:44:14.097Z,99.20
2019-03-28T16:48:31.047Z,98.98
2019-03-28T16:54:53.090Z,99.24
2019-03-28T16:58:02.040Z,99.70
2019-03-28T17:01:13.368Z,99.56
2019-03-28T17:04:24.183Z,99.09
2019-03-28T17:07:35.937Z,99.38
2019-03-28T17:11:47.582Z,99.61
2019-03-28T17:18:11.259Z,99.70
2019-03-28T17:21:19.585Z,99.82
2019-03-28T17:24:31.801Z,100.00
2019-03-28T17:28:20.994Z,100.00
2019-03-28T17:31:39.188Z,100.00
2019-03-28T17:34:48.023Z,100.00
2019-03-28T17:37:57.215Z,100.00
2019-03-28T17:41:06.649Z,100.00
2019-03-28T17:44:15.862Z,100.00
2019-03-28T17:47:23.693Z,100.00
2019-03-28T17:50:31.642Z,100.00
2019-03-28T17:53:42.139Z,100.00
2019-03-28T17:56:50.153Z,100.00
2019-03-28T17:59:57.989Z,100.00
2019-03-28T18:03:09.834Z,100.00
2019-03-28T18:06:18.219Z,100.00
2019-03-28T18:09:26.235Z,100.00
2019-03-28T18:12:34.092Z,100.00
2019-03-28T18:15:56.891Z,100.00
2019-03-28T18:19:05.940Z,100.00
2019-03-28T18:22:14.779Z,100.00
2019-03-28T18:25:22.667Z,100.00
2019-03-28T18:28:33.674Z,100.00
2019-03-28T18:31:50.327Z,100.00
2019-03-28T18:35:04.691Z,100.00
2019-03-28T18:38:04.063Z,100.00
2019-03-28T18:41:15.740Z,100.00
2019-03-28T18:44:23.640Z,100.00
2019-03-28T18:47:31.574Z,100.00
2019-03-28T18:50:41.119Z,100.00
2019-03-28T18:53:50.146Z,100.00
2019-03-28T18:56:58.233Z,100.00
2019-03-28T19:00:08.450Z,100.00
2019-03-28T19:03:16.351Z,100.00
2019-03-28T19:06:24.221Z,100.00
2019-03-28T19:09:33.137Z,100.00
2019-03-28T19:12:42.870Z,100.00
2019-03-28T19:15:52.122Z,100.00
2019-03-28T19:19:00.242Z,100.00
2019-03-28T19:22:08.497Z,100.00
2019-03-28T19:25:20.951Z,100.00
2019-03-28T19:28:29.640Z,100.00
2019-03-28T19:31:37.583Z,100.00
2019-03-28T19:34:45.472Z,100.00
2019-03-28T19:37:53.621Z,100.00
2019-03-28T19:41:01.478Z,100.00
2019-03-28T19:44:13.309Z,100.00
2019-03-28T19:47:23.694Z,100.00
2019-03-28T19:50:34.122Z,100.00
2019-03-28T19:53:45.354Z,100.00
2019-03-28T19:56:57.565Z,100.00
2019-03-28T20:00:09.237Z,100.00
2019-03-28T20:03:23.622Z,100.00
2019-03-28T20:06:33.547Z,100.00
2019-03-28T20:09:47.795Z,100.00
2019-03-28T20:13:00.398Z,100.00
2019-03-28T20:16:16.389Z,100.00
2019-03-28T20:19:24.359Z,100.00
2019-03-28T20:22:33.115Z,100.00
2019-03-28T20:25:42.781Z,100.00
2019-03-28T20:28:50.583Z,100.00
2019-03-28T20:31:58.615Z,100.00
2019-03-28T20:35:10.446Z,100.00
2019-03-28T20:38:18.093Z,100.00
2019-03-28T20:41:25.868Z,100.00
2019-03-28T20:44:33.696Z,100.00
2019-03-28T20:47:44.038Z,100.00
2019-03-28T20:50:52.443Z,100.00
2019-03-28T20:54:00.683Z,100.00
2019-03-28T20:57:10.193Z,98.97
2019-03-28T21:00:28.269Z,98.98
2019-03-28T21:03:36.709Z,98.86
2019-03-28T21:06:44.952Z,98.31
2019-03-28T21:09:52.768Z,98.01
2019-03-28T21:13:00.731Z,97.53
2019-03-28T21:16:11.795Z,96.95
2019-03-28T21:19:19.052Z,98.04
2019-03-28T21:22:27.027Z,97.84
2019-03-28T21:25:34.888Z,97.79
2019-03-28T21:28:47.383Z,97.86
2019-03-28T21:31:54.895Z,97.36
2019-03-28T21:35:02.869Z,97.51
2019-03-28T21:38:11.848Z,97.94
2019-03-28T21:41:20.279Z,97.49
2019-03-28T21:44:28.354Z,97.94
2019-03-28T21:47:36.140Z,98.52
2019-03-28T21:50:44.055Z,98.97
2019-03-28T21:53:51.939Z,97.90
2019-03-28T21:56:59.794Z,97.00
2019-03-28T22:00:10.172Z,96.88
2019-03-28T22:03:18.090Z,97.80
2019-03-28T22:06:27.081Z,97.41
2019-03-28T22:09:35.022Z,97.09
2019-03-28T22:12:43.157Z,98.80
2019-03-28T22:15:50.786Z,98.36
2019-03-28T22:18:59.790Z,99.45
2019-03-28T22:22:08.343Z,98.27
2019-03-28T22:25:16.395Z,99.88
2019-03-28T22:28:24.369Z,100.00
2019-03-28T22:31:32.368Z,99.72
2019-03-28T22:34:40.321Z,100.00
2019-03-28T22:37:48.182Z,100.00
2019-03-28T22:40:56.951Z,100.00
2019-03-28T22:44:07.728Z,100.00
2019-03-28T22:47:15.670Z,100.00
2019-03-28T22:50:24.091Z,100.00
2019-03-28T22:53:32.258Z,100.00
2019-03-28T22:56:40.150Z,99.63
2019-03-28T22:59:48.007Z,100.00
2019-03-28T23:02:56.067Z,100.00
2019-03-28T23:06:07.142Z,100.00
2019-03-28T23:09:15.033Z,99.86
2019-03-28T23:12:22.925Z,100.00
2019-03-28T23:15:30.912Z,100.00
2019-03-28T23:18:39.829Z,100.00
2019-03-28T23:21:47.691Z,100.00
2019-03-28T23:24:55.639Z,100.00
2019-03-28T23:28:03.506Z,100.00
2019-03-28T23:31:11.285Z,100.00
2019-03-28T23:34:20.120Z,99.93
2019-03-28T23:37:28.127Z,99.46
2019-03-28T23:40:35.822Z,98.50
2019-03-28T23:43:43.610Z,98.85
2019-03-28T23:46:52.653Z,98.81
2019-03-28T23:50:00.506Z,99.06
2019-03-28T23:53:08.943Z,98.64
2019-03-28T23:56:17.095Z,99.03
2019-03-28T23:59:24.803Z,100.00
